createdAt,value
2017-12-15T00:00:46.316Z,14.57
2017-12-15T00:03:13.992Z,12.60
2017-12-15T00:05:42.362Z,16.90
2017-12-15T00:08:09.897Z,18.10
2017-12-15T00:10:37.420Z,17.23
2017-12-15T00:13:04.973Z,20.27
2017-12-15T00:15:32.506Z,17.23
2017-12-15T00:18:00.032Z,19.83
2017-12-15T00:20:27.620Z,16.87
2017-12-15T00:22:55.254Z,16.53
2017-12-15T00:25:23.595Z,14.93
2017-12-15T00:27:51.249Z,15.67
2017-12-15T00:30:18.917Z,15.33
2017-12-15T00:32:46.601Z,13.47
2017-12-15T00:35:14.411Z,16.77
2017-12-15T00:37:41.978Z,15.87
2017-12-15T00:40:09.514Z,14.10
2017-12-15T00:42:37.057Z,13.83
2017-12-15T00:45:04.607Z,12.57
2017-12-15T00:47:32.914Z,14.00
2017-12-15T00:50:00.445Z,13.60
2017-12-15T00:52:28.756Z,12.63
2017-12-15T00:54:56.312Z,14.30
2017-12-15T00:57:23.908Z,13.77
2017-12-15T00:59:51.484Z,16.30
2017-12-15T01:02:19.105Z,14.67
2017-12-15T01:04:46.875Z,12.83
2017-12-15T01:07:14.470Z,12.93
2017-12-15T01:09:42.010Z,13.50
2017-12-15T01:12:09.532Z,15.13
2017-12-15T01:14:37.093Z,15.87
2017-12-15T01:17:05.376Z,16.60
2017-12-15T01:19:32.908Z,17.23
2017-12-15T01:22:00.451Z,13.13
2017-12-15T01:24:28.092Z,18.33
2017-12-15T01:26:55.717Z,10.43
2017-12-15T01:29:23.341Z,13.63
2017-12-15T01:31:50.998Z,16.23
2017-12-15T01:34:19.344Z,15.47
2017-12-15T01:36:50.397Z,13.53
2017-12-15T01:39:18.765Z,13.33
2017-12-15T01:41:46.797Z,18.17
2017-12-15T01:44:16.343Z,16.13
2017-12-15T01:46:45.386Z,12.13
2017-12-15T01:49:13.225Z,18.80
2017-12-15T01:51:42.066Z,16.80
2017-12-15T01:56:44.899Z,17.17
2017-12-15T01:59:13.938Z,14.93
2017-12-15T02:01:41.697Z,13.00
2017-12-15T02:04:10.617Z,12.40
2017-12-15T02:06:38.182Z,15.63
2017-12-15T02:09:16.206Z,17.87
2017-12-15T02:11:47.641Z,15.03
2017-12-15T02:14:15.539Z,11.63
2017-12-15T02:16:43.107Z,13.40
2017-12-15T02:19:11.442Z,16.57
2017-12-15T02:21:40.003Z,16.43
2017-12-15T02:24:07.559Z,14.20
2017-12-15T02:26:35.107Z,10.10
2017-12-15T02:29:02.654Z,14.60
2017-12-15T02:31:30.442Z,12.83
2017-12-15T02:33:57.989Z,15.50
2017-12-15T02:36:25.958Z,15.67
2017-12-15T02:38:54.534Z,14.70
2017-12-15T02:41:22.248Z,14.43
2017-12-15T02:43:50.457Z,17.40
2017-12-15T02:46:18.643Z,14.97
2017-12-15T02:48:46.378Z,13.23
2017-12-15T02:51:14.132Z,10.17
2017-12-15T02:53:41.769Z,17.13
2017-12-15T02:56:09.292Z,14.83
2017-12-15T02:58:37.578Z,13.87
2017-12-15T03:01:05.863Z,13.07
2017-12-15T03:03:34.929Z,16.67
2017-12-15T03:06:02.452Z,12.73
2017-12-15T03:08:29.986Z,13.13
2017-12-15T03:10:57.541Z,14.53
2017-12-15T03:13:25.400Z,13.47
2017-12-15T03:15:53.433Z,10.67
2017-12-15T03:18:21.222Z,7.17
2017-12-15T03:20:49.367Z,11.93
2017-12-15T03:23:17.978Z,12.47
2017-12-15T03:25:47.404Z,7.10
2017-12-15T03:28:16.396Z,9.47
2017-12-15T03:30:44.884Z,7.00
2017-12-15T03:33:12.890Z,7.20
2017-12-15T03:35:41.159Z,9.27
2017-12-15T03:38:08.739Z,8.50
2017-12-15T03:40:36.264Z,9.93
2017-12-15T03:43:03.773Z,5.60
2017-12-15T03:45:32.093Z,10.53
2017-12-15T03:47:59.604Z,6.33
2017-12-15T03:50:27.148Z,7.63
2017-12-15T03:52:54.940Z,11.20
2017-12-15T03:55:22.708Z,8.00
2017-12-15T03:57:50.694Z,8.77
2017-12-15T04:00:19.259Z,9.43
2017-12-15T04:02:47.850Z,12.87
2017-12-15T04:05:16.072Z,6.93
2017-12-15T04:07:44.020Z,8.90
2017-12-15T04:10:11.665Z,7.67
2017-12-15T04:12:39.965Z,12.47
2017-12-15T04:15:08.240Z,7.10
2017-12-15T04:17:36.547Z,8.17
2017-12-15T04:20:04.817Z,5.43
2017-12-15T04:22:32.324Z,8.07
2017-12-15T04:24:59.848Z,10.27
2017-12-15T04:27:27.399Z,13.97
2017-12-15T04:29:55.047Z,8.10
2017-12-15T04:32:22.717Z,11.53
2017-12-15T04:34:50.482Z,7.93
2017-12-15T04:37:18.401Z,9.83
2017-12-15T04:39:46.613Z,10.33
2017-12-15T04:42:14.577Z,9.50
2017-12-15T04:44:42.976Z,7.00
2017-12-15T04:47:10.514Z,6.17
2017-12-15T04:49:38.028Z,7.83
2017-12-15T04:52:06.320Z,16.07
2017-12-15T04:54:33.852Z,8.67
2017-12-15T04:57:01.392Z,5.57
2017-12-15T04:59:28.892Z,9.17
2017-12-15T05:01:56.451Z,6.80
2017-12-15T05:04:24.127Z,4.80
2017-12-15T05:06:51.972Z,7.70
2017-12-15T05:09:19.592Z,9.30
2017-12-15T05:11:48.861Z,8.73
2017-12-15T05:14:17.578Z,5.50
2017-12-15T05:16:47.262Z,9.40
2017-12-15T05:19:16.082Z,8.13
2017-12-15T05:21:45.840Z,8.00
2017-12-15T05:24:13.860Z,8.07
2017-12-15T05:26:41.481Z,7.27
2017-12-15T05:29:09.000Z,8.23
2017-12-15T05:31:36.526Z,7.17
2017-12-15T05:34:04.064Z,9.83
2017-12-15T05:36:31.722Z,6.37
2017-12-15T05:38:59.249Z,7.23
2017-12-15T05:41:26.762Z,8.00
2017-12-15T05:43:54.420Z,8.03
2017-12-15T05:46:23.648Z,8.13
2017-12-15T05:48:51.470Z,7.93
2017-12-15T05:51:19.895Z,8.97
2017-12-15T05:53:47.687Z,13.93
2017-12-15T05:56:15.745Z,6.70
2017-12-15T05:58:43.329Z,7.33
2017-12-15T06:01:11.048Z,11.37
2017-12-15T06:03:38.579Z,5.47
2017-12-15T06:06:06.090Z,9.97
2017-12-15T06:08:34.193Z,7.67
2017-12-15T06:11:01.720Z,6.43
2017-12-15T06:13:29.263Z,7.67
2017-12-15T06:15:56.810Z,10.10
2017-12-15T06:18:24.316Z,9.40
2017-12-15T06:20:52.265Z,10.67
2017-12-15T06:23:20.126Z,6.77
2017-12-15T06:25:55.991Z,7.50
2017-12-15T06:28:26.791Z,6.53
2017-12-15T06:30:55.182Z,6.57
2017-12-15T06:33:26.379Z,10.83
2017-12-15T06:36:01.857Z,4.30
2017-12-15T06:38:29.577Z,10.97
2017-12-15T06:41:01.207Z,5.07
2017-12-15T06:43:29.420Z,10.57
2017-12-15T06:45:57.101Z,6.73
2017-12-15T06:48:25.636Z,10.17
2017-12-15T06:50:54.752Z,7.63
2017-12-15T06:53:24.649Z,7.90
2017-12-15T06:55:54.788Z,13.20
2017-12-15T06:58:23.532Z,9.20
2017-12-15T07:00:52.016Z,7.87
2017-12-15T07:03:21.296Z,9.30
2017-12-15T07:05:51.212Z,3.80
2017-12-15T07:08:20.178Z,8.73
2017-12-15T07:10:50.681Z,9.00
2017-12-15T07:13:20.332Z,7.07
2017-12-15T07:15:49.355Z,10.77
2017-12-15T07:18:20.096Z,12.73
2017-12-15T07:20:49.755Z,7.77
2017-12-15T07:23:19.028Z,7.50
2017-12-15T07:25:48.790Z,8.70
2017-12-15T07:28:18.911Z,9.00
2017-12-15T07:30:48.396Z,7.13
2017-12-15T07:33:18.651Z,7.17
2017-12-15T07:35:49.378Z,6.57
2017-12-15T07:38:20.243Z,7.60
2017-12-15T07:40:49.494Z,9.30
2017-12-15T07:43:19.795Z,11.57
2017-12-15T07:45:48.618Z,8.63
2017-12-15T07:48:18.557Z,9.17
2017-12-15T07:50:48.349Z,9.00
2017-12-15T07:53:20.825Z,12.40
2017-12-15T07:55:49.857Z,10.63
2017-12-15T07:58:20.132Z,12.43
2017-12-15T08:00:49.600Z,12.23
2017-12-15T08:03:19.974Z,7.97
2017-12-15T08:05:50.155Z,13.30
2017-12-15T08:08:19.960Z,8.50
2017-12-15T08:10:49.730Z,7.80
2017-12-15T08:13:21.567Z,13.23
2017-12-15T08:15:50.683Z,8.67
2017-12-15T08:18:20.612Z,11.00
2017-12-15T08:20:51.478Z,11.87
2017-12-15T08:23:20.754Z,12.53
2017-12-15T08:25:50.334Z,11.47
2017-12-15T08:28:21.088Z,9.37
2017-12-15T08:30:50.205Z,8.93
2017-12-15T08:33:19.581Z,9.97
2017-12-15T08:35:49.634Z,11.50
2017-12-15T08:38:19.064Z,8.07
2017-12-15T08:40:49.047Z,11.00
2017-12-15T08:43:18.050Z,8.80
2017-12-15T08:45:50.852Z,7.37
2017-12-15T08:48:23.419Z,8.27
2017-12-15T08:50:53.123Z,6.63
2017-12-15T08:53:21.963Z,6.87
2017-12-15T08:55:50.616Z,6.33
2017-12-15T08:58:19.217Z,7.93
2017-12-15T09:00:50.107Z,10.17
2017-12-15T09:03:20.229Z,6.23
2017-12-15T09:05:49.635Z,4.00
2017-12-15T09:08:20.330Z,6.97
2017-12-15T09:10:48.741Z,8.33
2017-12-15T09:13:17.618Z,6.33
2017-12-15T09:15:45.984Z,8.60
2017-12-15T09:18:17.149Z,9.40
2017-12-15T09:20:46.503Z,8.13
2017-12-15T09:23:16.669Z,10.50
2017-12-15T09:25:47.951Z,7.43
2017-12-15T09:28:17.850Z,18.33
2017-12-15T09:30:48.063Z,9.47
2017-12-15T09:33:18.471Z,9.33
2017-12-15T09:35:49.140Z,5.93
2017-12-15T09:38:18.702Z,8.60
2017-12-15T09:40:49.454Z,7.57
2017-12-15T09:43:19.057Z,10.17
2017-12-15T09:45:49.213Z,7.93
2017-12-15T09:48:18.782Z,9.50
2017-12-15T09:50:48.691Z,10.73
2017-12-15T09:53:19.270Z,5.70
2017-12-15T09:55:48.218Z,8.23
2017-12-15T09:58:19.116Z,8.87
2017-12-15T10:00:49.793Z,6.93
2017-12-15T10:03:19.327Z,7.67
2017-12-15T10:05:48.347Z,8.07
2017-12-15T10:08:17.719Z,9.77
2017-12-15T10:10:48.947Z,6.27
2017-12-15T10:13:19.323Z,6.87
2017-12-15T10:15:51.059Z,7.07
2017-12-15T10:18:20.172Z,5.00
2017-12-15T10:20:50.633Z,7.50
2017-12-15T10:23:20.203Z,8.73
2017-12-15T10:25:50.356Z,4.87
2017-12-15T10:28:20.598Z,4.47
2017-12-15T10:30:50.128Z,2.87
2017-12-15T10:33:19.543Z,3.87
2017-12-15T10:35:49.872Z,5.50
2017-12-15T10:38:20.389Z,3.40
2017-12-15T10:40:49.715Z,2.90
2017-12-15T10:43:20.437Z,3.47
2017-12-15T10:45:51.189Z,3.70
2017-12-15T10:48:20.495Z,3.60
2017-12-15T10:50:50.555Z,3.80
2017-12-15T10:53:20.409Z,2.10
2017-12-15T10:55:49.363Z,1.67
2017-12-15T10:58:18.883Z,1.43
2017-12-15T11:00:49.591Z,1.10
2017-12-15T11:03:20.730Z,1.60
2017-12-15T11:05:50.488Z,1.80
2017-12-15T11:08:19.920Z,1.27
2017-12-15T11:10:50.447Z,1.30
2017-12-15T11:13:19.130Z,2.43
2017-12-15T11:15:48.928Z,1.93
2017-12-15T11:18:17.747Z,3.40
2017-12-15T11:20:46.314Z,2.37
2017-12-15T11:23:14.086Z,1.87
2017-12-15T11:25:41.812Z,3.43
2017-12-15T11:28:10.110Z,1.80
2017-12-15T11:30:38.400Z,2.70
2017-12-15T11:33:07.145Z,2.37
2017-12-15T11:35:35.982Z,2.43
2017-12-15T11:38:03.555Z,2.40
2017-12-15T11:40:31.083Z,2.83
2017-12-15T11:42:58.599Z,1.90
2017-12-15T11:45:26.913Z,1.63
2017-12-15T11:47:54.711Z,2.10
2017-12-15T11:50:22.932Z,1.50
2017-12-15T11:52:51.491Z,2.03
2017-12-15T11:55:20.560Z,1.60
2017-12-15T11:57:49.855Z,2.37
2017-12-15T12:00:19.161Z,2.53
2017-12-15T12:02:47.364Z,3.20
2017-12-15T12:05:15.699Z,5.10
2017-12-15T12:07:43.385Z,3.20
2017-12-15T12:10:11.270Z,2.80
2017-12-15T12:12:38.824Z,2.43
2017-12-15T12:15:06.753Z,3.70
2017-12-15T12:17:35.116Z,2.23
2017-12-15T12:20:02.680Z,2.23
2017-12-15T12:22:30.204Z,2.77
2017-12-15T12:24:57.727Z,2.80
2017-12-15T12:27:26.087Z,3.13
2017-12-15T12:29:54.030Z,2.90
2017-12-15T12:32:22.692Z,2.30
2017-12-15T12:34:51.931Z,2.90
2017-12-15T12:37:20.620Z,3.73
2017-12-15T12:39:49.181Z,2.37
2017-12-15T12:42:18.242Z,3.00
2017-12-15T12:44:46.893Z,3.57
2017-12-15T12:47:15.737Z,3.30
2017-12-15T12:49:43.456Z,3.07
2017-12-15T12:52:11.363Z,3.40
2017-12-15T12:54:41.600Z,2.80
2017-12-15T12:57:09.623Z,2.97
2017-12-15T12:59:38.247Z,3.00
2017-12-15T13:02:05.825Z,2.87
2017-12-15T13:04:33.344Z,3.40
2017-12-15T13:07:01.643Z,4.07
2017-12-15T13:09:29.155Z,2.63
2017-12-15T13:11:57.217Z,5.13
2017-12-15T13:14:26.884Z,4.43
2017-12-15T13:16:56.658Z,3.20
2017-12-15T13:19:24.376Z,4.63
2017-12-15T13:21:53.274Z,5.17
2017-12-15T13:24:23.761Z,4.40
2017-12-15T13:26:55.016Z,3.93
2017-12-15T13:29:23.922Z,4.00
2017-12-15T13:31:56.208Z,4.07
2017-12-15T13:34:24.734Z,3.47
2017-12-15T13:36:56.092Z,4.37
2017-12-15T13:39:25.272Z,7.77
2017-12-15T13:41:55.804Z,11.23
2017-12-15T13:44:25.111Z,9.57
2017-12-15T13:46:56.433Z,43.57
2017-12-15T13:49:25.770Z,11.20
2017-12-15T13:51:55.624Z,11.70
2017-12-15T13:54:27.801Z,4.40
2017-12-15T13:56:55.792Z,16.90
2017-12-15T13:59:24.993Z,5.93
2017-12-15T14:01:53.008Z,6.77
2017-12-15T14:04:24.975Z,3.47
2017-12-15T14:06:57.368Z,5.13
2017-12-15T14:09:26.096Z,10.00
2017-12-15T14:11:55.172Z,3.87
2017-12-15T14:14:24.859Z,6.03
2017-12-15T14:16:55.069Z,5.33
2017-12-15T14:19:24.177Z,6.67
2017-12-15T14:21:55.081Z,5.87
2017-12-15T14:24:24.184Z,6.03
2017-12-15T14:26:54.654Z,7.07
2017-12-15T14:29:23.031Z,5.23
2017-12-15T14:31:54.414Z,4.10
2017-12-15T14:34:25.631Z,5.13
2017-12-15T14:36:56.096Z,5.40
2017-12-15T14:39:26.535Z,6.00
2017-12-15T14:41:56.351Z,7.53
2017-12-15T14:44:27.168Z,7.87
2017-12-15T14:46:57.892Z,6.43
2017-12-15T14:49:30.032Z,6.90
2017-12-15T14:51:57.580Z,10.97
2017-12-15T14:54:26.771Z,6.03
2017-12-15T14:56:56.701Z,6.53
2017-12-15T14:59:26.774Z,6.63
2017-12-15T15:01:58.097Z,8.57
2017-12-15T15:04:27.120Z,8.63
2017-12-15T15:06:56.168Z,6.63
2017-12-15T15:09:26.696Z,4.07
2017-12-15T15:11:56.341Z,4.50
2017-12-15T15:14:25.816Z,6.07
2017-12-15T15:16:54.974Z,7.23
2017-12-15T15:19:25.308Z,5.20
2017-12-15T15:21:56.937Z,6.10
2017-12-15T15:24:26.764Z,6.23
2017-12-15T15:26:56.767Z,7.57
2017-12-15T15:29:26.215Z,5.70
2017-12-15T15:31:56.635Z,7.97
2017-12-15T15:34:26.467Z,7.43
2017-12-15T15:36:55.177Z,9.30
2017-12-15T15:39:25.784Z,4.50
2017-12-15T15:41:55.088Z,9.00
2017-12-15T15:44:24.632Z,6.93
2017-12-15T15:46:56.222Z,7.27
2017-12-15T15:49:24.222Z,14.47
2017-12-15T15:51:55.956Z,7.83
2017-12-15T15:54:26.890Z,7.43
2017-12-15T15:56:56.087Z,10.77
2017-12-15T15:59:25.635Z,6.93
2017-12-15T16:01:54.632Z,8.27
2017-12-15T16:04:24.671Z,8.23
2017-12-15T16:06:53.045Z,11.40
2017-12-15T16:09:20.816Z,11.10
2017-12-15T16:11:49.763Z,9.47
2017-12-15T16:14:19.261Z,10.07
2017-12-15T16:16:47.583Z,7.33
2017-12-15T16:19:18.387Z,7.03
2017-12-15T16:21:46.902Z,6.43
2017-12-15T16:24:15.126Z,13.33
2017-12-15T16:26:42.817Z,7.73
2017-12-15T16:29:11.405Z,10.90
2017-12-15T16:31:40.537Z,8.97
2017-12-15T16:34:08.279Z,8.13
2017-12-15T16:36:35.834Z,9.60
2017-12-15T16:39:03.351Z,8.00
2017-12-15T16:41:30.887Z,28.23
2017-12-15T16:43:58.404Z,57.20
2017-12-15T16:46:26.712Z,18.97
2017-12-15T16:48:54.237Z,31.77
2017-12-15T16:51:23.155Z,18.80
2017-12-15T16:53:51.176Z,19.63
2017-12-15T16:56:20.351Z,6.83
2017-12-15T16:58:48.741Z,13.13
2017-12-15T17:01:17.969Z,9.87
2017-12-15T17:03:45.935Z,4.73
2017-12-15T17:06:14.517Z,8.87
2017-12-15T17:08:44.365Z,9.23
2017-12-15T17:11:12.040Z,6.33
2017-12-15T17:13:39.959Z,9.17
2017-12-15T17:16:08.100Z,7.83
2017-12-15T17:18:35.745Z,12.03
2017-12-15T17:21:03.283Z,13.40
2017-12-15T17:23:30.800Z,7.53
2017-12-15T17:25:58.422Z,8.13
2017-12-15T17:28:26.103Z,6.10
2017-12-15T17:30:53.854Z,5.93
2017-12-15T17:33:23.413Z,8.40
2017-12-15T17:35:51.585Z,10.83
2017-12-15T17:38:19.814Z,8.77
2017-12-15T17:40:47.937Z,10.40
2017-12-15T17:43:18.673Z,9.13
2017-12-15T17:45:47.686Z,12.03
2017-12-15T17:48:16.265Z,8.67
2017-12-15T17:50:47.457Z,12.47
2017-12-15T17:53:17.899Z,8.33
2017-12-15T17:55:49.533Z,17.17
2017-12-15T17:58:19.349Z,9.90
2017-12-15T18:00:49.982Z,10.00
2017-12-15T18:03:21.664Z,11.40
2017-12-15T18:05:49.407Z,11.00
2017-12-15T18:08:19.819Z,10.83
2017-12-15T18:10:49.068Z,11.00
2017-12-15T18:13:19.108Z,13.63
2017-12-15T18:15:48.424Z,9.13
2017-12-15T18:18:18.958Z,17.10
2017-12-15T18:20:48.855Z,11.93
2017-12-15T18:23:19.780Z,6.77
2017-12-15T18:25:48.807Z,11.10
2017-12-15T18:28:20.509Z,14.17
2017-12-15T18:30:50.468Z,7.07
2017-12-15T18:33:20.071Z,7.60
2017-12-15T18:35:50.154Z,11.20
2017-12-15T18:38:21.456Z,9.60
2017-12-15T18:40:50.710Z,9.63
2017-12-15T18:43:19.877Z,10.27
2017-12-15T18:45:47.949Z,12.17
2017-12-15T18:48:18.312Z,10.23
2017-12-15T18:50:46.911Z,17.87
2017-12-15T18:53:15.916Z,21.30
2017-12-15T18:55:43.971Z,24.37
2017-12-15T18:58:11.556Z,17.47
2017-12-15T19:00:39.084Z,17.17
2017-12-15T19:03:06.619Z,17.10
2017-12-15T19:05:34.143Z,16.70
2017-12-15T19:08:01.645Z,10.70
2017-12-15T19:10:30.975Z,11.83
2017-12-15T19:12:58.647Z,14.20
2017-12-15T19:15:28.135Z,13.20
2017-12-15T19:17:56.638Z,9.03
2017-12-15T19:20:27.183Z,15.23
2017-12-15T19:22:55.840Z,17.03
2017-12-15T19:25:24.128Z,14.73
2017-12-15T19:27:53.049Z,14.77
2017-12-15T19:30:21.209Z,11.93
2017-12-15T19:32:48.979Z,10.27
2017-12-15T19:35:16.825Z,13.13
2017-12-15T20:27:24.659Z,8.57
2017-12-15T20:29:52.360Z,6.93
2017-12-15T20:32:19.970Z,7.47
2017-12-15T20:34:47.905Z,7.97
2017-12-15T20:37:16.405Z,8.33
2017-12-15T20:39:44.999Z,8.50
2017-12-15T20:42:13.455Z,11.77
2017-12-15T20:44:41.012Z,8.47
2017-12-15T20:47:08.565Z,6.60
2017-12-15T20:49:36.079Z,9.60
2017-12-15T20:52:03.626Z,13.97
2017-12-15T20:54:32.150Z,7.27
2017-12-15T20:56:59.703Z,7.87
2017-12-15T20:59:28.036Z,10.17
2017-12-15T21:01:56.426Z,11.87
2017-12-15T21:04:24.038Z,6.73
2017-12-15T21:06:51.595Z,9.57
2017-12-15T21:09:19.241Z,9.00
2017-12-15T21:11:47.868Z,6.80
2017-12-15T21:14:15.770Z,9.23
2017-12-15T21:16:43.490Z,9.00
2017-12-15T21:19:11.065Z,10.93
2017-12-15T21:21:38.593Z,12.53
2017-12-15T21:24:06.117Z,11.60
2017-12-15T21:26:33.678Z,13.97
2017-12-15T21:29:01.209Z,9.37
2017-12-15T21:31:28.772Z,12.83
2017-12-15T21:33:56.348Z,9.90
2017-12-15T21:36:25.594Z,11.37
2017-12-15T21:38:53.583Z,15.27
2017-12-15T21:41:21.517Z,14.57
2017-12-15T21:43:49.557Z,58.30
2017-12-15T21:46:19.002Z,39.20
2017-12-15T21:48:46.888Z,17.20
2017-12-15T21:51:16.705Z,11.23
2017-12-15T21:53:44.469Z,9.97
2017-12-15T21:56:12.011Z,8.40
2017-12-15T21:58:39.587Z,50.27
2017-12-15T22:01:07.116Z,47.57
2017-12-15T22:03:35.442Z,28.10
2017-12-15T22:06:02.996Z,16.00
2017-12-15T22:08:30.529Z,11.20
2017-12-15T22:10:58.080Z,10.90
2017-12-15T22:13:25.625Z,14.47
2017-12-15T22:15:53.946Z,11.23
2017-12-15T22:18:21.515Z,16.23
2017-12-15T22:20:49.094Z,10.33
2017-12-15T22:23:17.020Z,11.30
2017-12-15T22:25:46.025Z,15.93
2017-12-15T22:28:13.993Z,14.10
2017-12-15T22:30:42.333Z,16.40
2017-12-15T22:33:10.658Z,12.13
2017-12-15T22:35:38.183Z,12.40
2017-12-15T22:38:06.481Z,12.97
2017-12-15T22:40:34.050Z,15.93
2017-12-15T22:43:01.626Z,14.50
2017-12-15T22:45:29.212Z,14.20
2017-12-15T22:47:56.749Z,13.50
2017-12-15T22:50:24.382Z,9.60
2017-12-15T22:52:52.069Z,10.50
2017-12-15T22:55:19.676Z,11.03
2017-12-15T22:57:48.297Z,12.17
2017-12-15T23:00:16.273Z,10.83
2017-12-15T23:02:47.617Z,12.07
2017-12-15T23:05:15.726Z,13.67
2017-12-15T23:07:45.709Z,14.77
2017-12-15T23:10:13.302Z,14.97
2017-12-15T23:12:41.727Z,11.23
2017-12-15T23:15:09.273Z,15.37
2017-12-15T23:17:37.574Z,15.63
2017-12-15T23:20:05.097Z,18.73
2017-12-15T23:22:33.418Z,18.40
2017-12-15T23:25:00.947Z,15.40
2017-12-15T23:27:28.495Z,18.63
2017-12-15T23:29:56.076Z,16.17
2017-12-15T23:32:24.453Z,18.30
2017-12-15T23:34:52.104Z,17.70
2017-12-15T23:37:20.522Z,17.77
2017-12-15T23:39:48.286Z,19.47
2017-12-15T23:42:15.872Z,20.63
2017-12-15T23:44:43.510Z,15.97
2017-12-15T23:47:11.141Z,14.63
2017-12-15T23:49:39.434Z,16.70
2017-12-15T23:52:06.982Z,15.80
2017-12-15T23:54:46.753Z,16.30
2017-12-15T23:57:14.922Z,14.53
2017-12-15T23:59:44.331Z,14.60
